createdAt,value
2017-12-28T00:01:14.022Z,88.62
2017-12-28T00:02:14.037Z,88.06
2017-12-28T00:04:06.997Z,88.29
2017-12-28T00:05:06.994Z,88.68
2017-12-28T00:07:00.451Z,88.39
2017-12-28T00:08:00.461Z,88.29
2017-12-28T00:09:53.415Z,88.77
2017-12-28T00:10:53.411Z,88.96
2017-12-28T00:12:46.353Z,89.43
2017-12-28T00:13:46.380Z,89.53
2017-12-28T00:15:39.322Z,88.96
2017-12-28T00:16:39.321Z,89.34
2017-12-28T00:18:32.279Z,89.25
2017-12-28T00:19:32.276Z,89.06
2017-12-28T00:21:25.214Z,89.15
2017-12-28T00:22:25.228Z,88.96
2017-12-28T00:24:18.202Z,89.43
2017-12-28T00:25:18.183Z,89.62
2017-12-28T00:27:11.122Z,89.15
2017-12-28T00:28:11.137Z,89.53
2017-12-28T00:30:04.096Z,89.06
2017-12-28T00:31:04.092Z,89.43
2017-12-28T00:32:57.033Z,89.81
2017-12-28T00:33:57.068Z,89.77
2017-12-28T00:35:50.002Z,89.91
2017-12-28T00:36:50.008Z,89.91
2017-12-28T00:38:42.981Z,89.53
2017-12-28T00:39:42.978Z,89.53
2017-12-28T00:41:35.994Z,89.53
2017-12-28T00:42:36.009Z,89.43
2017-12-28T00:44:28.969Z,89.06
2017-12-28T00:45:28.962Z,89.06
2017-12-28T00:47:21.903Z,89.06
2017-12-28T00:48:21.918Z,88.87
2017-12-28T00:50:14.874Z,88.77
2017-12-28T00:51:14.872Z,88.96
2017-12-28T00:53:07.811Z,88.77
2017-12-28T00:54:07.825Z,88.96
2017-12-28T00:56:00.784Z,89.25
2017-12-28T00:57:00.780Z,88.96
2017-12-28T00:58:53.756Z,89.43
2017-12-28T00:59:53.740Z,89.34
2017-12-28T01:01:47.697Z,89.53
2017-12-28T01:02:47.712Z,89.34
2017-12-28T01:04:40.670Z,89.43
2017-12-28T01:05:40.666Z,89.15
2017-12-28T01:07:34.127Z,89.34
2017-12-28T01:08:34.141Z,89.43
2017-12-28T01:10:28.116Z,88.96
2017-12-28T01:11:28.111Z,89.34
2017-12-28T01:13:21.052Z,89.34
2017-12-28T01:14:21.066Z,89.34
2017-12-28T01:16:14.043Z,89.62
2017-12-28T01:17:14.022Z,89.62
2017-12-28T01:19:06.980Z,89.43
2017-12-28T01:20:06.973Z,89.34
2017-12-28T01:21:59.915Z,89.53
2017-12-28T01:22:59.928Z,89.91
2017-12-28T01:24:52.885Z,89.72
2017-12-28T01:25:52.881Z,89.34
2017-12-28T01:27:45.825Z,89.67
2017-12-28T01:28:45.842Z,89.72
2017-12-28T01:30:39.308Z,89.96
2017-12-28T01:31:39.304Z,89.96
2017-12-28T01:33:32.240Z,90.29
2017-12-28T01:34:32.255Z,90.43
2017-12-28T01:36:25.214Z,90.15
2017-12-28T01:37:25.210Z,90.24
2017-12-28T01:39:18.169Z,90.05
2017-12-28T01:40:18.168Z,90.15
2017-12-28T01:42:11.105Z,89.86
2017-12-28T01:43:11.117Z,89.96
2017-12-28T01:45:04.076Z,90.05
2017-12-28T01:46:04.073Z,90.10
2017-12-28T01:47:57.012Z,90.24
2017-12-28T01:48:57.026Z,89.77
2017-12-28T01:50:49.989Z,90.05
2017-12-28T01:51:49.986Z,89.67
2017-12-28T01:53:42.927Z,89.96
2017-12-28T01:54:42.941Z,89.67
2017-12-28T01:56:36.409Z,89.86
2017-12-28T01:57:36.404Z,89.29
2017-12-28T01:59:29.363Z,89.67
2017-12-28T02:00:29.358Z,89.48
2017-12-28T02:02:22.295Z,89.86
2017-12-28T02:03:22.308Z,89.96
2017-12-28T02:05:15.785Z,90.43
2017-12-28T02:06:15.781Z,90.05
2017-12-28T02:08:09.232Z,89.77
2017-12-28T02:09:09.245Z,89.77
2017-12-28T02:11:02.203Z,89.86
2017-12-28T02:12:02.202Z,90.24
2017-12-28T02:13:55.142Z,89.96
2017-12-28T02:14:55.156Z,89.86
2017-12-28T02:16:48.111Z,90.43
2017-12-28T02:17:48.108Z,90.62
2017-12-28T02:19:41.577Z,90.91
2017-12-28T02:20:41.575Z,90.34
2017-12-28T02:22:34.521Z,90.34
2017-12-28T02:23:34.527Z,90.53
2017-12-28T02:25:27.484Z,90.91
2017-12-28T02:26:27.483Z,90.34
2017-12-28T02:28:20.421Z,89.77
2017-12-28T02:29:20.442Z,90.15
2017-12-28T02:31:13.397Z,89.77
2017-12-28T02:32:13.392Z,90.05
2017-12-28T02:34:06.851Z,89.67
2017-12-28T02:35:06.874Z,90.15
2017-12-28T02:37:00.326Z,90.05
2017-12-28T02:38:00.321Z,90.05
2017-12-28T02:39:53.284Z,90.72
2017-12-28T02:40:53.278Z,90.53
2017-12-28T02:42:46.217Z,90.34
2017-12-28T02:43:46.234Z,90.91
2017-12-28T02:45:39.188Z,90.43
2017-12-28T02:46:39.184Z,90.43
2017-12-28T02:48:32.125Z,90.62
2017-12-28T02:49:32.140Z,90.43
2017-12-28T02:51:25.096Z,90.43
2017-12-28T02:52:25.092Z,90.62
2017-12-28T02:54:18.031Z,90.62
2017-12-28T02:55:18.052Z,90.05
2017-12-28T02:57:11.006Z,90.43
2017-12-28T02:58:11.001Z,90.10
2017-12-28T03:00:03.964Z,90.24
2017-12-28T03:01:03.954Z,89.72
2017-12-28T03:02:57.408Z,90.19
2017-12-28T03:03:57.424Z,90.19
2017-12-28T03:05:53.361Z,90.19
2017-12-28T03:06:53.346Z,90.10
2017-12-28T03:08:46.284Z,89.91
2017-12-28T03:09:46.297Z,90.10
2017-12-28T03:11:39.771Z,90.24
2017-12-28T03:12:39.767Z,89.86
2017-12-28T03:14:35.718Z,90.43
2017-12-28T03:15:35.699Z,90.24
2017-12-28T03:17:30.172Z,90.43
2017-12-28T03:18:30.183Z,90.53
2017-12-28T03:20:23.140Z,90.24
2017-12-28T03:21:23.135Z,90.24
2017-12-28T03:23:16.081Z,90.43
2017-12-28T03:24:16.097Z,90.72
2017-12-28T03:26:09.049Z,90.53
2017-12-28T03:27:09.046Z,90.43
2017-12-28T03:29:02.004Z,90.53
2017-12-28T03:30:02.019Z,91.09
2017-12-28T03:31:54.976Z,90.53
2017-12-28T03:32:54.954Z,90.62
2017-12-28T03:34:47.943Z,90.81
2017-12-28T03:35:47.906Z,91.00
2017-12-28T03:37:40.859Z,90.62
2017-12-28T03:38:40.860Z,90.53
2017-12-28T03:40:33.814Z,91.28
2017-12-28T03:41:33.810Z,90.62
2017-12-28T03:43:26.752Z,90.81
2017-12-28T03:44:26.766Z,91.28
2017-12-28T03:46:19.724Z,91.66
2017-12-28T03:47:19.720Z,91.57
2017-12-28T03:49:12.661Z,91.57
2017-12-28T03:50:12.678Z,92.33
2017-12-28T03:52:05.633Z,92.14
2017-12-28T03:53:05.627Z,92.33
2017-12-28T03:54:58.592Z,91.57
2017-12-28T03:55:58.581Z,92.04
2017-12-28T03:57:51.522Z,92.61
2017-12-28T03:58:51.535Z,92.52
2017-12-28T04:00:44.497Z,92.42
2017-12-28T04:01:44.494Z,92.23
2017-12-28T04:03:37.430Z,92.42
2017-12-28T04:04:37.446Z,92.33
2017-12-28T04:06:30.405Z,91.66
2017-12-28T04:07:30.398Z,91.95
2017-12-28T04:09:23.341Z,92.23
2017-12-28T04:10:23.355Z,92.42
2017-12-28T04:12:16.312Z,92.61
2017-12-28T04:13:16.305Z,92.42
2017-12-28T04:15:10.262Z,92.23
2017-12-28T04:16:09.262Z,92.52
2017-12-28T04:18:02.208Z,92.42
2017-12-28T04:19:02.217Z,92.52
2017-12-28T04:20:55.176Z,92.42
2017-12-28T04:21:55.172Z,92.42
2017-12-28T04:23:48.115Z,92.52
2017-12-28T04:24:48.126Z,92.04
2017-12-28T04:26:41.086Z,91.95
2017-12-28T04:27:41.099Z,91.85
2017-12-28T04:29:34.022Z,91.85
2017-12-28T04:30:34.045Z,92.23
2017-12-28T04:32:27.504Z,92.33
2017-12-28T04:33:27.502Z,91.85
2017-12-28T04:35:20.457Z,92.04
2017-12-28T04:36:20.454Z,92.04
2017-12-28T04:38:13.412Z,92.14
2017-12-28T04:39:13.427Z,92.14
2017-12-28T04:41:06.367Z,92.04
2017-12-28T04:42:06.364Z,92.04
2017-12-28T04:43:59.306Z,92.14
2017-12-28T04:44:59.322Z,92.14
2017-12-28T04:46:52.276Z,92.14
2017-12-28T04:47:52.271Z,92.42
2017-12-28T04:49:45.214Z,92.66
2017-12-28T04:50:45.233Z,92.52
2017-12-28T04:52:38.188Z,92.52
2017-12-28T04:53:38.181Z,92.99
2017-12-28T04:55:31.663Z,93.37
2017-12-28T04:56:31.713Z,93.18
2017-12-28T04:58:24.603Z,93.18
2017-12-28T04:59:24.606Z,92.61
2017-12-28T05:01:17.558Z,92.52
2017-12-28T05:02:17.556Z,92.61
2017-12-28T05:04:10.497Z,92.23
2017-12-28T05:05:10.528Z,92.42
2017-12-28T05:07:03.466Z,92.33
2017-12-28T05:08:03.461Z,93.27
2017-12-28T05:09:57.428Z,93.18
2017-12-28T05:10:57.439Z,93.08
2017-12-28T05:12:50.400Z,92.99
2017-12-28T05:13:50.403Z,92.23
2017-12-28T05:15:43.373Z,92.42
2017-12-28T05:16:43.348Z,92.23
2017-12-28T05:18:36.297Z,92.61
2017-12-28T05:19:36.309Z,92.42
2017-12-28T05:21:30.285Z,92.61
2017-12-28T05:22:30.282Z,92.14
2017-12-28T05:24:23.224Z,91.95
2017-12-28T05:25:23.235Z,91.95
2017-12-28T05:27:16.191Z,91.95
2017-12-28T05:28:16.187Z,92.23
2017-12-28T05:30:09.128Z,92.14
2017-12-28T05:31:09.144Z,92.23
2017-12-28T05:33:02.103Z,91.95
2017-12-28T05:34:02.097Z,92.04
2017-12-28T05:35:55.058Z,91.95
2017-12-28T05:36:55.052Z,91.76
2017-12-28T05:38:48.007Z,92.19
2017-12-28T05:39:48.031Z,92.71
2017-12-28T05:41:41.476Z,92.71
2017-12-28T05:42:41.470Z,92.71
2017-12-28T05:44:34.415Z,92.61
2017-12-28T05:45:34.486Z,93.18
2017-12-28T05:47:27.380Z,93.04
2017-12-28T05:48:27.376Z,93.23
2017-12-28T05:50:20.320Z,92.85
2017-12-28T05:51:20.339Z,92.85
2017-12-28T05:53:13.295Z,93.04
2017-12-28T05:54:13.287Z,92.90
2017-12-28T05:56:06.264Z,92.94
2017-12-28T05:57:06.238Z,93.27
2017-12-28T05:58:59.249Z,92.42
2017-12-28T05:59:59.249Z,92.61
2017-12-28T06:01:52.155Z,92.23
2017-12-28T06:02:52.149Z,92.09
2017-12-28T06:04:45.605Z,92.42
2017-12-28T06:05:45.617Z,92.14
2017-12-28T06:07:38.573Z,91.95
2017-12-28T06:08:38.567Z,92.14
2017-12-28T06:10:31.510Z,92.14
2017-12-28T06:11:31.522Z,92.33
2017-12-28T06:13:24.994Z,92.14
2017-12-28T06:14:24.994Z,92.14
2017-12-28T06:16:17.950Z,92.04
2017-12-28T06:17:17.946Z,92.23
2017-12-28T06:19:10.901Z,92.04
2017-12-28T06:20:10.899Z,92.04
2017-12-28T06:22:04.374Z,91.47
2017-12-28T06:23:04.363Z,91.57
2017-12-28T06:24:57.304Z,92.23
2017-12-28T06:25:57.318Z,91.76
2017-12-28T06:27:51.817Z,92.14
2017-12-28T06:28:51.807Z,91.57
2017-12-28T06:30:44.750Z,91.47
2017-12-28T06:31:44.763Z,91.85
2017-12-28T06:33:37.723Z,91.85
2017-12-28T06:34:37.719Z,91.85
2017-12-28T06:36:30.682Z,92.04
2017-12-28T06:37:30.671Z,92.23
2017-12-28T06:39:24.123Z,91.47
2017-12-28T06:40:24.136Z,91.47
2017-12-28T06:42:17.099Z,91.47
2017-12-28T06:43:17.092Z,91.47
2017-12-28T06:45:10.035Z,91.76
2017-12-28T06:46:10.046Z,91.57
2017-12-28T06:48:03.516Z,92.04
2017-12-28T06:49:03.512Z,91.95
2017-12-28T06:50:56.453Z,91.95
2017-12-28T06:51:56.467Z,91.85
2017-12-28T06:53:49.428Z,91.95
2017-12-28T06:54:49.423Z,92.14
2017-12-28T06:56:42.397Z,92.33
2017-12-28T06:57:42.374Z,91.85
2017-12-28T06:59:35.314Z,92.28
2017-12-28T07:00:35.327Z,91.85
2017-12-28T07:02:28.287Z,91.85
2017-12-28T07:03:28.283Z,91.43
2017-12-28T07:05:21.222Z,91.81
2017-12-28T07:06:21.235Z,91.43
2017-12-28T07:08:14.196Z,91.57
2017-12-28T07:09:14.191Z,92.14
2017-12-28T07:11:07.642Z,92.23
2017-12-28T07:12:07.657Z,91.47
2017-12-28T07:14:00.618Z,91.66
2017-12-28T07:15:00.614Z,91.38
2017-12-28T07:16:54.102Z,91.66
2017-12-28T07:17:54.076Z,91.76
2017-12-28T07:19:47.022Z,91.38
2017-12-28T07:20:47.034Z,91.76
2017-12-28T07:22:40.505Z,91.76
2017-12-28T07:23:40.500Z,91.71
2017-12-28T07:25:33.437Z,91.66
2017-12-28T07:26:33.451Z,91.81
2017-12-28T07:28:29.384Z,92.28
2017-12-28T07:29:29.378Z,92.09
2017-12-28T07:31:22.314Z,91.90
2017-12-28T07:32:22.329Z,92.09
2017-12-28T07:34:15.309Z,91.81
2017-12-28T07:35:15.287Z,92.00
2017-12-28T07:37:08.245Z,92.38
2017-12-28T07:38:08.238Z,92.38
2017-12-28T07:40:01.180Z,92.57
2017-12-28T07:41:01.194Z,92.66
2017-12-28T07:42:55.175Z,92.57
2017-12-28T07:43:55.168Z,92.19
2017-12-28T07:45:48.109Z,93.13
2017-12-28T07:46:48.124Z,93.13
2017-12-28T07:48:41.181Z,92.38
2017-12-28T07:49:41.077Z,92.38
2017-12-28T07:51:34.018Z,92.47
2017-12-28T07:52:34.031Z,93.13
2017-12-28T07:54:27.000Z,93.04
2017-12-28T07:55:26.988Z,93.32
2017-12-28T07:57:19.951Z,93.23
2017-12-28T07:58:19.940Z,93.13
2017-12-28T08:00:12.882Z,92.47
2017-12-28T08:01:12.893Z,92.47
2017-12-28T08:03:05.854Z,92.47
2017-12-28T08:04:05.848Z,92.57
2017-12-28T08:05:58.791Z,93.23
2017-12-28T08:06:58.816Z,92.57
2017-12-28T08:08:51.900Z,93.04
2017-12-28T08:09:51.791Z,93.04
2017-12-28T08:11:54.654Z,93.32
2017-12-28T08:12:54.669Z,93.13
2017-12-28T08:14:47.582Z,92.94
2017-12-28T08:15:47.577Z,93.04
2017-12-28T08:17:54.124Z,92.85
2017-12-28T08:18:54.190Z,92.85
2017-12-28T08:20:47.021Z,92.85
2017-12-28T08:21:47.037Z,92.94
2017-12-28T08:23:52.370Z,92.94
2017-12-28T08:24:52.387Z,93.04
2017-12-28T08:26:45.748Z,93.23
2017-12-28T08:27:45.828Z,92.38
2017-12-28T08:29:38.811Z,92.57
2017-12-28T08:30:38.806Z,92.57
2017-12-28T08:32:31.866Z,92.38
2017-12-28T08:33:31.862Z,92.47
2017-12-28T08:35:25.027Z,92.66
2017-12-28T08:36:25.022Z,92.47
2017-12-28T08:38:17.934Z,92.66
2017-12-28T08:39:17.950Z,92.47
2017-12-28T08:41:10.825Z,92.09
2017-12-28T08:42:10.837Z,92.66
2017-12-28T08:44:03.751Z,92.38
2017-12-28T08:45:03.745Z,91.81
2017-12-28T08:46:57.851Z,92.00
2017-12-28T08:47:58.701Z,92.09
2017-12-28T08:49:50.776Z,92.09
2017-12-28T08:50:50.909Z,92.38
2017-12-28T08:52:43.667Z,91.71
2017-12-28T08:53:43.680Z,90.95
2017-12-28T08:55:37.054Z,90.67
2017-12-28T08:56:37.071Z,91.24
2017-12-28T08:58:29.924Z,91.05
2017-12-28T08:59:29.924Z,91.05
2017-12-28T09:01:22.814Z,90.95
2017-12-28T09:02:22.828Z,90.53
2017-12-28T09:04:15.942Z,91.00
2017-12-28T09:05:15.733Z,90.62
2017-12-28T09:07:08.696Z,89.96
2017-12-28T09:08:08.645Z,89.58
2017-12-28T09:10:02.550Z,89.96
2017-12-28T09:11:02.577Z,90.24
2017-12-28T09:12:55.444Z,90.43
2017-12-28T09:13:55.459Z,89.67
2017-12-28T09:15:48.374Z,89.77
2017-12-28T09:16:48.369Z,89.67
2017-12-28T09:18:42.500Z,89.58
2017-12-28T09:19:43.371Z,89.39
2017-12-28T09:21:35.393Z,89.67
2017-12-28T09:22:35.419Z,89.67
2017-12-28T09:24:28.317Z,88.73
2017-12-28T09:25:28.322Z,88.82
2017-12-28T09:27:21.775Z,89.01
2017-12-28T09:28:21.230Z,89.11
2017-12-28T09:30:14.299Z,89.39
2017-12-28T09:31:14.177Z,90.43
2017-12-28T09:33:07.060Z,89.58
2017-12-28T09:34:07.055Z,89.39
2017-12-28T09:35:59.987Z,89.48
2017-12-28T09:37:00.277Z,89.86
2017-12-28T09:38:53.898Z,89.29
2017-12-28T09:39:53.903Z,89.39
2017-12-28T09:41:47.778Z,89.11
2017-12-28T09:42:47.794Z,88.82
2017-12-28T09:44:40.728Z,88.44
2017-12-28T09:45:40.725Z,87.59
2017-12-28T09:47:33.602Z,87.21
2017-12-28T09:48:33.631Z,87.40
2017-12-28T09:50:26.535Z,88.44
2017-12-28T09:51:26.537Z,87.59
2017-12-28T09:53:19.463Z,87.40
2017-12-28T09:54:19.441Z,87.77
2017-12-28T09:56:12.333Z,87.77
2017-12-28T09:57:12.348Z,87.59
2017-12-28T09:59:05.262Z,87.40
2017-12-28T10:00:05.257Z,87.30
2017-12-28T10:01:58.155Z,86.74
2017-12-28T10:02:58.166Z,87.30
2017-12-28T10:04:51.087Z,87.59
2017-12-28T10:05:51.084Z,87.59
2017-12-28T10:07:43.979Z,87.21
2017-12-28T10:08:43.994Z,87.21
2017-12-28T10:10:36.908Z,87.49
2017-12-28T10:11:36.908Z,87.40
2017-12-28T10:13:29.836Z,87.77
2017-12-28T10:14:29.814Z,87.21
2017-12-28T10:16:23.707Z,87.30
2017-12-28T10:17:23.723Z,87.49
2017-12-28T10:19:16.636Z,87.97
2017-12-28T10:20:16.633Z,87.68
2017-12-28T10:22:09.537Z,88.06
2017-12-28T10:23:09.548Z,87.30
2017-12-28T10:25:02.462Z,87.40
2017-12-28T10:26:02.457Z,87.77
2017-12-28T10:27:55.351Z,87.77
2017-12-28T10:28:55.369Z,87.49
2017-12-28T10:30:48.285Z,86.83
2017-12-28T10:31:48.281Z,86.64
2017-12-28T10:33:41.175Z,86.68
2017-12-28T10:34:41.195Z,86.74
2017-12-28T10:36:34.109Z,86.49
2017-12-28T10:37:34.101Z,86.68
2017-12-28T10:39:27.458Z,86.68
2017-12-28T10:40:27.198Z,86.78
2017-12-28T10:42:19.918Z,86.11
2017-12-28T10:43:19.932Z,85.64
2017-12-28T10:45:12.848Z,85.74
2017-12-28T10:46:12.845Z,85.93
2017-12-28T10:48:05.764Z,85.17
2017-12-28T10:49:05.755Z,85.07
2017-12-28T10:50:58.669Z,85.07
2017-12-28T10:51:58.665Z,84.50
2017-12-28T10:53:51.565Z,85.17
2017-12-28T10:54:51.575Z,84.98
2017-12-28T10:56:44.499Z,84.98
2017-12-28T10:57:44.496Z,83.94
2017-12-28T10:59:37.576Z,84.31
2017-12-28T11:00:37.420Z,84.59
2017-12-28T11:02:30.319Z,84.69
2017-12-28T11:03:30.330Z,84.12
2017-12-28T11:05:23.251Z,83.65
2017-12-28T11:06:23.257Z,82.98
2017-12-28T11:08:16.674Z,83.27
2017-12-28T11:09:16.662Z,83.31
2017-12-28T11:11:09.599Z,82.79
2017-12-28T11:12:09.574Z,82.60
2017-12-28T11:14:02.501Z,82.89
2017-12-28T11:15:02.496Z,83.08
2017-12-28T11:16:55.417Z,82.70
2017-12-28T11:17:55.407Z,82.42
2017-12-28T11:19:48.424Z,82.89
2017-12-28T11:20:48.319Z,82.98
2017-12-28T11:22:42.205Z,82.42
2017-12-28T11:23:42.351Z,82.60
2017-12-28T11:25:36.333Z,81.98
2017-12-28T11:26:36.330Z,81.75
2017-12-28T11:28:29.234Z,81.75
2017-12-28T11:29:29.239Z,81.60
2017-12-28T11:31:22.165Z,82.04
2017-12-28T11:32:22.162Z,81.70
2017-12-28T11:34:15.063Z,80.37
2017-12-28T11:35:15.086Z,81.13
2017-12-28T11:37:07.986Z,80.75
2017-12-28T11:38:07.985Z,79.99
2017-12-28T11:40:00.896Z,80.75
2017-12-28T11:41:00.901Z,79.80
2017-12-28T11:42:53.786Z,79.23
2017-12-28T11:43:53.809Z,78.47
2017-12-28T11:45:46.716Z,77.90
2017-12-28T11:46:46.717Z,77.90
2017-12-28T11:48:39.612Z,77.24
2017-12-28T11:49:39.626Z,77.14
2017-12-28T11:51:32.545Z,76.95
2017-12-28T11:52:32.560Z,77.71
2017-12-28T11:54:25.437Z,76.39
2017-12-28T11:55:25.460Z,76.48
2017-12-28T11:57:18.371Z,76.67
2017-12-28T11:58:18.367Z,76.39
2017-12-28T12:00:11.281Z,76.48
2017-12-28T12:01:11.301Z,75.62
2017-12-28T12:03:04.175Z,75.72
2017-12-28T12:04:04.204Z,76.39
2017-12-28T12:05:57.126Z,76.76
2017-12-28T12:06:57.114Z,76.10
2017-12-28T12:08:50.012Z,76.76
2017-12-28T12:09:50.026Z,76.67
2017-12-28T12:11:42.967Z,76.95
2017-12-28T12:12:42.966Z,76.71
2017-12-28T12:14:35.871Z,75.28
2017-12-28T12:15:35.889Z,75.76
2017-12-28T12:17:28.809Z,76.42
2017-12-28T12:18:28.808Z,75.57
2017-12-28T12:20:21.724Z,75.09
2017-12-28T12:21:21.725Z,75.00
2017-12-28T12:23:14.619Z,74.81
2017-12-28T12:24:14.636Z,74.05
2017-12-28T12:26:07.549Z,74.52
2017-12-28T12:27:07.546Z,74.43
2017-12-28T12:29:00.447Z,74.81
2017-12-28T12:30:00.465Z,74.71
2017-12-28T12:31:53.378Z,74.24
2017-12-28T12:32:53.380Z,74.33
2017-12-28T12:34:46.275Z,73.76
2017-12-28T12:35:46.289Z,74.15
2017-12-28T12:37:39.205Z,74.43
2017-12-28T12:38:39.203Z,74.52
2017-12-28T12:40:32.116Z,75.47
2017-12-28T12:41:32.120Z,74.81
2017-12-28T12:43:25.015Z,75.47
2017-12-28T12:44:25.029Z,75.28
2017-12-28T12:46:17.947Z,75.38
2017-12-28T12:47:17.946Z,75.00
2017-12-28T12:49:10.848Z,75.09
2017-12-28T12:50:10.859Z,75.47
2017-12-28T12:52:03.779Z,74.58
2017-12-28T12:53:03.774Z,75.00
2017-12-28T12:54:56.675Z,75.24
2017-12-28T12:55:56.688Z,75.53
2017-12-28T12:57:49.607Z,75.72
2017-12-28T12:58:49.602Z,76.29
2017-12-28T13:00:42.540Z,76.20
2017-12-28T13:01:42.538Z,76.67
2017-12-28T13:03:35.436Z,76.76
2017-12-28T13:04:35.455Z,76.67
2017-12-28T13:06:28.374Z,76.67
2017-12-28T13:07:28.370Z,76.01
2017-12-28T13:09:21.268Z,75.53
2017-12-28T13:10:21.285Z,75.81
2017-12-28T13:12:14.196Z,76.01
2017-12-28T13:13:14.193Z,75.72
2017-12-28T13:15:08.088Z,75.15
2017-12-28T13:16:08.106Z,74.11
2017-12-28T13:18:01.080Z,73.54
2017-12-28T13:19:01.079Z,73.54
2017-12-28T13:20:54.031Z,74.01
2017-12-28T13:21:54.029Z,74.30
2017-12-28T13:23:47.922Z,75.43
2017-12-28T13:24:47.936Z,74.96
2017-12-28T13:26:40.879Z,75.05
2017-12-28T13:27:40.932Z,74.11
2017-12-28T13:29:33.790Z,73.25
2017-12-28T13:30:33.814Z,72.88
2017-12-28T13:32:26.769Z,73.35
2017-12-28T13:33:26.765Z,74.20
2017-12-28T13:35:19.691Z,74.87
2017-12-28T13:36:19.707Z,74.01
2017-12-28T13:38:12.683Z,72.78
2017-12-28T13:39:12.637Z,71.92
2017-12-28T13:41:05.538Z,71.73
2017-12-28T13:42:05.537Z,72.02
2017-12-28T13:43:58.430Z,72.68
2017-12-28T13:44:58.453Z,72.68
2017-12-28T13:46:51.360Z,71.55
2017-12-28T13:47:51.374Z,71.45
2017-12-28T13:49:44.308Z,71.45
2017-12-28T13:50:44.411Z,71.64
2017-12-28T13:52:37.463Z,72.02
2017-12-28T13:53:37.473Z,72.11
2017-12-28T13:55:32.846Z,72.21
2017-12-28T13:56:32.834Z,72.97
2017-12-28T13:58:25.826Z,73.07
2017-12-28T13:59:25.810Z,72.59
2017-12-28T14:01:19.487Z,72.88
2017-12-28T14:02:19.487Z,72.97
2017-12-28T14:04:12.419Z,72.88
2017-12-28T14:05:12.433Z,73.44
2017-12-28T14:07:05.388Z,73.07
2017-12-28T14:08:05.385Z,73.82
2017-12-28T14:09:58.332Z,72.97
2017-12-28T14:10:58.338Z,73.07
2017-12-28T14:12:51.298Z,73.35
2017-12-28T14:13:51.304Z,73.54
2017-12-28T14:15:44.236Z,73.82
2017-12-28T14:16:44.249Z,72.88
2017-12-28T14:18:37.205Z,73.44
2017-12-28T14:19:37.200Z,73.54
2017-12-28T14:21:30.165Z,73.72
2017-12-28T14:22:30.163Z,74.68
2017-12-28T14:24:23.097Z,74.35
2017-12-28T14:25:23.111Z,74.77
2017-12-28T14:27:16.065Z,75.31
2017-12-28T14:28:16.062Z,75.11
2017-12-28T14:30:09.035Z,74.39
2017-12-28T14:31:09.021Z,74.30
2017-12-28T14:33:01.975Z,74.54
2017-12-28T14:34:01.973Z,74.73
2017-12-28T14:35:54.911Z,75.40
2017-12-28T14:36:54.930Z,75.21
2017-12-28T14:38:47.844Z,75.24
2017-12-28T14:39:47.842Z,75.62
2017-12-28T14:41:40.762Z,75.15
2017-12-28T14:42:40.759Z,74.68
2017-12-28T14:44:35.155Z,74.96
2017-12-28T14:45:35.170Z,74.96
2017-12-28T14:47:28.191Z,74.96
2017-12-28T14:48:28.176Z,75.15
2017-12-28T14:50:21.126Z,75.05
2017-12-28T14:51:21.129Z,74.77
2017-12-28T14:53:14.089Z,75.43
2017-12-28T14:54:14.086Z,75.43
2017-12-28T14:56:08.046Z,74.87
2017-12-28T14:57:08.077Z,74.96
2017-12-28T14:59:01.018Z,75.34
2017-12-28T15:00:01.018Z,76.01
2017-12-28T15:01:53.993Z,76.57
2017-12-28T15:02:53.976Z,75.72
2017-12-28T15:04:46.871Z,74.96
2017-12-28T15:05:46.889Z,74.87
2017-12-28T15:07:39.808Z,74.49
2017-12-28T15:08:39.809Z,74.11
2017-12-28T15:10:32.816Z,74.26
2017-12-28T15:11:32.831Z,74.35
2017-12-28T15:13:25.943Z,74.35
2017-12-28T15:14:25.897Z,74.39
2017-12-28T15:16:18.800Z,74.11
2017-12-28T15:17:18.823Z,74.20
2017-12-28T15:19:11.734Z,73.44
2017-12-28T15:20:11.761Z,73.54
2017-12-28T15:22:04.657Z,73.63
2017-12-28T15:23:04.656Z,73.63
2017-12-28T15:24:57.556Z,73.54
2017-12-28T15:25:57.572Z,73.31
2017-12-28T15:27:50.497Z,72.45
2017-12-28T15:28:50.496Z,72.74
2017-12-28T15:30:43.391Z,73.03
2017-12-28T15:31:43.408Z,73.22
2017-12-28T15:33:46.341Z,73.88
2017-12-28T15:34:46.336Z,74.54
2017-12-28T15:36:39.249Z,72.93
2017-12-28T15:37:39.246Z,73.41
2017-12-28T15:39:32.157Z,73.60
2017-12-28T15:40:32.156Z,73.60
2017-12-28T15:42:25.067Z,73.31
2017-12-28T15:43:25.072Z,72.84
2017-12-28T15:45:17.967Z,73.97
2017-12-28T15:46:17.979Z,73.22
2017-12-28T15:48:10.897Z,73.03
2017-12-28T15:49:10.894Z,72.93
2017-12-28T15:51:04.785Z,72.93
2017-12-28T15:52:04.803Z,73.22
2017-12-28T15:53:57.718Z,73.41
2017-12-28T15:54:57.726Z,73.31
2017-12-28T15:56:50.652Z,73.31
2017-12-28T15:57:50.649Z,73.60
2017-12-28T15:59:43.553Z,73.50
2017-12-28T16:00:43.567Z,72.93
2017-12-28T16:02:36.488Z,73.31
2017-12-28T16:03:36.469Z,73.79
2017-12-28T16:05:29.371Z,73.60
2017-12-28T16:06:29.389Z,74.07
2017-12-28T16:08:22.296Z,73.50
2017-12-28T16:09:22.293Z,73.97
2017-12-28T16:11:15.198Z,74.07
2017-12-28T16:12:15.213Z,74.07
2017-12-28T16:14:09.123Z,74.35
2017-12-28T16:15:09.121Z,74.35
2017-12-28T16:17:02.033Z,73.88
2017-12-28T16:18:02.029Z,74.16
2017-12-28T16:19:55.104Z,74.54
2017-12-28T16:20:55.123Z,74.54
2017-12-28T16:22:48.042Z,74.35
2017-12-28T16:23:48.039Z,74.16
2017-12-28T16:25:40.941Z,74.54
2017-12-28T16:26:40.953Z,74.26
2017-12-28T16:28:33.859Z,75.02
2017-12-28T16:29:33.857Z,75.11
2017-12-28T16:31:26.756Z,75.11
2017-12-28T16:32:26.772Z,75.31
2017-12-28T16:34:19.958Z,75.31
2017-12-28T16:35:19.900Z,75.40
2017-12-28T16:37:12.820Z,76.12
2017-12-28T16:38:12.816Z,76.25
2017-12-28T16:40:05.781Z,76.15
2017-12-28T16:41:05.797Z,76.15
2017-12-28T16:42:58.708Z,76.15
2017-12-28T16:43:58.706Z,76.15
2017-12-28T16:45:51.615Z,76.34
2017-12-28T16:46:51.627Z,76.44
2017-12-28T16:48:44.783Z,76.63
2017-12-28T16:49:44.769Z,76.63
2017-12-28T16:51:40.642Z,76.34
2017-12-28T16:52:40.657Z,77.01
2017-12-28T16:54:33.565Z,77.39
2017-12-28T16:55:33.565Z,76.34
2017-12-28T16:57:26.478Z,76.63
2017-12-28T16:58:26.473Z,77.48
2017-12-28T17:00:19.386Z,77.96
2017-12-28T17:01:19.385Z,77.67
2017-12-28T17:03:12.304Z,77.77
2017-12-28T17:04:12.296Z,77.01
2017-12-28T17:06:05.189Z,76.92
2017-12-28T17:07:05.222Z,76.92
2017-12-28T17:08:58.128Z,77.20
2017-12-28T17:09:58.156Z,77.39
2017-12-28T17:11:51.018Z,77.29
2017-12-28T17:12:51.033Z,76.73
2017-12-28T17:14:43.945Z,77.86
2017-12-28T17:15:43.939Z,76.82
2017-12-28T17:17:36.893Z,77.11
2017-12-28T17:18:36.856Z,76.92
2017-12-28T17:20:29.756Z,77.77
2017-12-28T17:21:29.772Z,77.48
2017-12-28T17:23:22.685Z,77.67
2017-12-28T17:24:22.682Z,77.48
2017-12-28T17:26:15.580Z,78.05
2017-12-28T17:27:15.593Z,78.34
2017-12-28T17:29:08.506Z,77.96
2017-12-28T17:30:08.504Z,78.15
2017-12-28T17:32:01.399Z,78.34
2017-12-28T17:33:01.415Z,78.15
2017-12-28T17:34:54.329Z,78.15
2017-12-28T17:35:54.324Z,77.77
2017-12-28T17:37:47.243Z,77.48
2017-12-28T17:38:47.240Z,78.34
2017-12-28T17:40:40.135Z,78.62
2017-12-28T17:41:40.149Z,78.34
2017-12-28T17:43:33.072Z,78.72
2017-12-28T17:44:33.070Z,77.86
2017-12-28T17:46:25.979Z,78.62
2017-12-28T17:47:25.981Z,78.62
2017-12-28T17:49:18.901Z,78.05
2017-12-28T17:50:18.901Z,78.43
2017-12-28T17:52:11.797Z,78.72
2017-12-28T17:53:11.810Z,78.91
2017-12-28T17:55:04.724Z,78.34
2017-12-28T17:56:04.721Z,78.34
2017-12-28T17:57:57.654Z,78.62
2017-12-28T17:58:57.629Z,78.34
2017-12-28T18:00:50.530Z,78.34
2017-12-28T18:01:50.543Z,78.43
2017-12-28T18:03:43.820Z,78.43
2017-12-28T18:04:43.820Z,78.81
2017-12-28T18:06:36.731Z,79.19
2017-12-28T18:07:36.737Z,79.28
2017-12-28T18:09:29.659Z,79.47
2017-12-28T18:10:29.651Z,79.19
2017-12-28T18:12:22.551Z,79.28
2017-12-28T18:13:22.563Z,79.00
2017-12-28T18:15:15.488Z,79.19
2017-12-28T18:16:15.485Z,79.38
2017-12-28T18:18:08.417Z,79.28
2017-12-28T18:19:08.392Z,79.10
2017-12-28T18:21:01.289Z,79.38
2017-12-28T18:22:01.306Z,79.38
2017-12-28T18:23:54.224Z,79.47
2017-12-28T18:24:54.217Z,79.57
2017-12-28T18:26:47.111Z,79.10
2017-12-28T18:27:47.124Z,79.19
2017-12-28T18:29:40.041Z,79.76
2017-12-28T18:30:40.037Z,79.66
2017-12-28T18:32:32.934Z,79.66
2017-12-28T18:33:32.946Z,79.57
2017-12-28T18:35:25.860Z,80.04